Flight Track Log - Related Links

Times and Time Zones

All times are in EDT time to prevent confusion due to time zone crossing. See the KAP46 flight status page for this flight to view local times or setup timezone preferences in your user account.

Time Position Orientation Groundspeed Altitude Reporting Facility
EDT Latitude Longitude Course Direction KTS MPH feet Rate Location/Type
Sun 02:39:00 PM 42.8952 -73.8692 341° North  Level Estimated
Sun 02:40:00 PM 42.9196 -73.8804 341° North  Level Estimated
Sun 02:41:00 PM 42.9439 -73.8917 341° North  Level Estimated
Sun 02:42:00 PM 42.9683 -73.9029 341° North  Level Estimated
Sun 02:43:00 PM 42.9926 -73.9142 341° North  Level Estimated
Sun 02:43:32 PM 43.0464 -73.9856 341° North 129 148 7,800  Level Boston Center
Sun 02:44:00 PM 43.0170 -73.9255 341° North  Level Estimated
Sun 02:44:33 PM 43.0839 -73.9981 346° North 124 143 8,300  Level Boston Center
Sun 02:45:00 PM 43.0413 -73.9367 341° North  Level Estimated
Sun 02:45:34 PM 43.1128 -74.0186 333° Northwest 123 142 9,000  Level Boston Center
Sun 02:46:00 PM 43.0657 -73.9480 341° North  Level Estimated
Sun 02:46:35 PM 43.1436 -74.0308 344° North 121 139 9,700  Level Boston Center
Sun 02:47:00 PM 43.0900 -73.9593 341° North  Level Estimated
Sun 02:47:42 PM 43.1831 -74.0517 339° North 139 160 10,100  Level Boston Center
Sun 02:48:00 PM 43.1143 -73.9706 341° North  Level Estimated
Sun 02:48:42 PM 43.2203 -74.0697 341° North 150 173 10,000  Level Boston Center
Sun 02:49:42 PM 43.2722 -74.0769 354° North 161 185 10,000 50 Level Boston Center
Sun 02:50:42 PM 43.3183 -74.0725 North 166 191 10,100  Climbing Boston Center
Sun 02:51:42 PM 43.3681 -74.0881 347° North 166 191 10,000 -50 Descending Boston Center
Sun 02:52:42 PM 43.4136 -74.1064 344° North 161 185 10,000  Level Boston Center
Sun 02:53:42 PM 43.4592 -74.1278 341° North 166 191 10,000  Level Boston Center
Sun 02:54:42 PM 43.5025 -74.1489 341° North 166 191 10,000  Level Boston Center
Sun 02:55:42 PM 43.5481 -74.1675 344° North 166 191 10,000  Level Boston Center
Sun 02:56:54 PM 43.5997 -74.1947 339° North 166 191 10,000  Level Boston Center
Sun 02:57:54 PM 43.6453 -74.2161 341° North 166 191 10,000  Level Boston Center
Sun 02:58:54 PM 43.6908 -74.2375 341° North 166 191 10,000  Level Boston Center
Sun 02:59:54 PM 43.7364 -74.2561 344° North 166 191 10,000  Level Boston Center
Sun 03:00:54 PM 43.7819 -74.2806 339° North 166 191 10,000  Level Boston Center
Sun 03:02:06 PM 43.8356 -74.3053 342° North 166 191 10,000  Level Boston Center
Sun 03:03:06 PM 43.8811 -74.3297 339° North 166 191 10,000  Level Boston Center
Sun 03:04:06 PM 43.9203 -74.3539 336° Northwest 166 191 10,000  Level Boston Center
Sun 03:05:06 PM 43.9556 -74.3725 339° North 166 191 10,000  Level Boston Center
Sun 03:06:06 PM 44.0050 -74.3969 340° North 166 191 10,000  Level Boston Center
Sun 03:07:06 PM 44.0506 -74.4189 341° North 166 191 10,000  Level Boston Center
Sun 03:08:06 PM 44.0897 -74.4375 341° North 161 185 10,000  Level Boston Center
Sun 03:09:06 PM 44.1353 -74.4506 348° North 161 185 10,000  Level Boston Center
Sun 03:10:06 PM 44.1767 -74.4664 345° North 161 185 10,000 -100 Level Boston Center
Sun 03:11:06 PM 44.2203 -74.4881 340° North 161 185 9,800 -400 Descending Boston Center
Sun 03:12:06 PM 44.2636 -74.5100 340° North 161 185 9,200 -600 Descending Boston Center
Sun 03:13:06 PM 44.3111 -74.5319 342° North 171 197 8,600 -600 Descending Boston Center
Sun 03:14:06 PM 44.3564 -74.5625 334° Northwest 171 197 8,000 -500 Descending Boston Center
Sun 03:15:06 PM 44.3997 -74.5903 335° Northwest 171 197 7,600 -400 Descending Boston Center
Sun 03:16:06 PM 44.4472 -74.6036 349° North 171 197 7,200 -300 Descending Boston Center
Sun 03:17:06 PM 44.4883 -74.6400 328° Northwest 165 190 7,000 -100 Descending Boston Center
Sun 03:18:06 PM 44.5189 -74.6733 322° Northwest 155 178 7,000  Level Boston Center
Sun 03:19:06 PM 44.5494 -74.7122 318° Northwest 150 173 7,000  Level Boston Center
Sun 03:20:06 PM 44.5800 -74.7425 325° Northwest 150 173 7,000  Level Boston Center
Sun 03:21:06 PM 44.6275 -74.7589 346° North 150 173 7,000 -150 Level Boston Center
Sun 03:22:06 PM 44.6758 -74.7406 15° North 164 189 6,700 -450 Descending Boston Center
Sun 03:23:06 PM 44.7119 -74.7069 33° Northeast 164 189 6,100 -650 Descending Boston Center
Sun 03:24:06 PM 44.7650 -74.6650 29° Northeast 182 209 5,400 -550 Descending Boston Center
Sun 03:25:06 PM 44.8136 -74.6258 30° Northeast 188 216 5,000 -200 Descending Boston Center
Sun 03:26:06 PM 44.8558 -74.5894 31° Northeast 188 216 5,000 -50 Level Boston Center
Sun 03:27:06 PM 44.8981 -74.5586 27° Northeast 188 216 4,900 -400 Descending Boston Center
Sun 03:28:06 PM 44.9439 -74.5692 351° North 158 182 4,200 -700 Descending Boston Center
Sun 03:29:06 PM 44.9764 -74.6028 324° Northwest 148 170 3,500 -600 Descending Boston Center
Sun 03:30:06 PM 44.9714 -74.6553 262° West 122 140 3,000 -455 Descending Boston Center
Sun 03:31:18 PM 44.9639 -74.7136 260° West 127 146 2,500 909 Descending Boston Center
Sun 03:32:18 PM 44.9628 -74.7753 269° West 127 146 5,000 1,250 Climbing Boston Center
Sun 03:33:18 PM 44.9617 -74.8281 268° West 127 146 5,000  Level Boston Center
Sun 03:34:18 PM 44.9606 -74.8778 268° West 127 146 5,000  Level Boston Center
Sun 03:35:18 PM 44.9603 -74.8983 269° West 127 146 5,000  Level Boston Center

Login

Don't have an account? Register now (free) for customized features, flight alerts, and more!